createdAt,value
2023-05-08T00:01:19.853Z,5.15
2023-05-08T00:03:46.347Z,4.55
2023-05-08T00:06:12.834Z,4.32
2023-05-08T00:08:39.509Z,5.50
2023-05-08T00:11:06.061Z,4.90
2023-05-08T00:13:32.511Z,5.40
2023-05-08T00:15:59.246Z,4.60
2023-05-08T00:18:26.477Z,4.72
2023-05-08T00:20:52.999Z,5.07
2023-05-08T00:23:22.017Z,4.38
2023-05-08T00:25:48.422Z,5.15
2023-05-08T00:28:14.803Z,5.00
2023-05-08T00:30:41.208Z,4.40
2023-05-08T00:33:07.790Z,4.93
2023-05-08T00:35:34.426Z,4.70
2023-05-08T00:38:01.367Z,4.57
2023-05-08T00:40:28.041Z,5.00
2023-05-08T00:42:54.434Z,5.40
2023-05-08T00:45:20.918Z,5.77
2023-05-08T00:47:47.520Z,5.45
2023-05-08T00:50:14.271Z,6.88
2023-05-08T00:52:41.402Z,6.25
2023-05-08T00:55:08.369Z,6.65
2023-05-08T00:57:37.773Z,6.27
2023-05-08T01:00:05.508Z,5.75
2023-05-08T01:02:32.544Z,6.10
2023-05-08T01:04:59.993Z,5.38
2023-05-08T01:07:27.534Z,5.28
2023-05-08T01:09:53.995Z,5.27
2023-05-08T01:12:40.023Z,6.32
2023-05-08T01:15:17.458Z,4.97
2023-05-08T01:17:59.419Z,3.70
2023-05-08T01:20:42.179Z,3.70
2023-05-08T01:23:24.843Z,4.07
2023-05-08T01:26:12.851Z,4.45
2023-05-08T01:29:16.261Z,4.43
2023-05-08T01:32:10.943Z,4.32
2023-05-08T01:34:44.618Z,4.32
2023-05-08T01:37:23.828Z,4.10
2023-05-08T01:40:10.809Z,4.10
2023-05-08T01:42:49.229Z,4.68
2023-05-08T01:45:39.330Z,5.72
2023-05-08T01:48:10.789Z,4.22
2023-05-08T01:50:46.195Z,4.17
2023-05-08T01:53:24.432Z,3.92
2023-05-08T01:55:55.886Z,4.80
2023-05-08T01:58:24.837Z,4.10
2023-05-08T02:00:52.974Z,4.00
2023-05-08T02:03:21.636Z,4.27
2023-05-08T02:05:50.491Z,4.30
2023-05-08T02:08:20.902Z,4.38
2023-05-08T02:10:50.469Z,4.60
2023-05-08T02:13:20.161Z,5.03
2023-05-08T02:15:52.863Z,5.30
2023-05-08T02:18:21.602Z,5.45
2023-05-08T02:20:51.520Z,5.25
2023-05-08T02:23:19.971Z,6.03
2023-05-08T02:25:47.803Z,5.90
2023-05-08T02:28:16.501Z,6.43
2023-05-08T02:30:44.412Z,6.05
2023-05-08T02:33:13.323Z,7.03
2023-05-08T02:35:43.977Z,7.10
2023-05-08T02:38:12.576Z,6.53
2023-05-08T02:40:45.086Z,6.83
2023-05-08T02:43:12.068Z,7.13
2023-05-08T02:45:48.452Z,6.78
2023-05-08T02:48:26.190Z,6.28
2023-05-08T02:51:03.048Z,6.80
2023-05-08T02:53:37.608Z,5.70
2023-05-08T02:56:16.789Z,5.80
2023-05-08T02:58:49.013Z,5.85
2023-05-08T03:01:30.128Z,5.53
2023-05-08T03:04:04.320Z,7.07
2023-05-08T03:06:37.014Z,7.20
2023-05-08T03:09:05.944Z,6.97
2023-05-08T03:11:40.854Z,6.65
2023-05-08T03:14:11.186Z,6.47
2023-05-08T03:16:41.480Z,6.15
2023-05-08T03:19:15.054Z,6.37
2023-05-08T03:21:44.120Z,6.53
2023-05-08T03:24:11.359Z,5.78
2023-05-08T03:26:38.258Z,6.40
2023-05-08T03:29:06.059Z,6.70
2023-05-08T03:31:34.286Z,6.10
2023-05-08T03:34:02.375Z,6.18
2023-05-08T03:36:30.424Z,5.28
2023-05-08T03:38:56.986Z,5.72
2023-05-08T03:41:25.726Z,5.93
2023-05-08T03:43:53.355Z,5.83
2023-05-08T03:46:20.972Z,6.28
2023-05-08T03:48:50.327Z,5.60
2023-05-08T03:51:17.363Z,6.60
2023-05-08T03:53:43.945Z,7.18
2023-05-08T03:56:10.504Z,6.23
2023-05-08T03:58:42.801Z,6.10
2023-05-08T04:01:25.374Z,6.25
2023-05-08T04:04:14.828Z,5.72
2023-05-08T04:06:55.027Z,5.97
2023-05-08T04:09:28.921Z,6.20
2023-05-08T04:12:20.440Z,5.85
2023-05-08T04:14:56.557Z,7.05
2023-05-08T04:17:39.306Z,6.25
2023-05-08T04:20:07.403Z,6.25
2023-05-08T04:22:35.664Z,7.23
2023-05-08T04:25:06.599Z,7.10
2023-05-08T04:27:33.916Z,7.13
2023-05-08T04:30:01.422Z,7.03
2023-05-08T04:32:29.225Z,7.25
2023-05-08T04:34:56.372Z,6.73
2023-05-08T04:37:24.556Z,7.15
2023-05-08T04:39:51.508Z,7.22
2023-05-08T04:42:18.197Z,6.68
2023-05-08T04:44:44.676Z,7.20
2023-05-08T04:47:11.108Z,7.60
2023-05-08T04:49:37.486Z,6.93
2023-05-08T04:52:04.314Z,7.78
2023-05-08T04:54:30.797Z,7.43
2023-05-08T04:56:57.579Z,7.43
2023-05-08T04:59:25.021Z,7.37
2023-05-08T05:01:51.664Z,7.60
2023-05-08T05:04:18.423Z,8.18
2023-05-08T05:06:44.946Z,9.00
2023-05-08T05:09:11.789Z,7.68
2023-05-08T05:11:38.248Z,8.43
2023-05-08T05:14:04.750Z,7.78
2023-05-08T05:16:31.313Z,7.90
2023-05-08T05:18:57.821Z,6.97
2023-05-08T05:21:24.359Z,7.78
2023-05-08T05:23:50.823Z,7.20
2023-05-08T05:26:17.296Z,6.72
2023-05-08T05:28:43.753Z,6.65
2023-05-08T05:31:10.681Z,6.05
2023-05-08T05:33:37.166Z,6.03
2023-05-08T05:36:03.873Z,5.80
2023-05-08T05:38:30.307Z,6.82
2023-05-08T05:40:56.854Z,6.38
2023-05-08T05:43:23.267Z,6.10
2023-05-08T05:45:49.775Z,7.35
2023-05-08T05:48:16.558Z,7.33
2023-05-08T05:50:43.103Z,7.65
2023-05-08T05:53:10.033Z,8.80
2023-05-08T05:55:36.602Z,10.07
2023-05-08T05:58:03.307Z,10.27
2023-05-08T06:00:31.227Z,11.40
2023-05-08T06:02:58.018Z,11.07
2023-05-08T06:05:24.720Z,12.00
2023-05-08T06:07:51.340Z,12.45
2023-05-08T06:10:18.041Z,12.15
2023-05-08T06:12:44.525Z,12.27
2023-05-08T06:15:11.907Z,12.27
2023-05-08T06:17:38.787Z,11.52
2023-05-08T06:20:06.531Z,12.07
2023-05-08T06:22:32.974Z,12.27
2023-05-08T06:24:59.908Z,11.87
2023-05-08T06:27:26.445Z,12.05
2023-05-08T06:29:53.549Z,12.63
2023-05-08T06:32:20.882Z,12.07
2023-05-08T06:34:48.016Z,11.60
2023-05-08T06:37:15.952Z,12.40
2023-05-08T06:39:42.394Z,13.00
2023-05-08T06:42:09.155Z,12.10
2023-05-08T06:44:36.173Z,11.88
2023-05-08T06:47:02.734Z,11.63
2023-05-08T06:49:29.378Z,11.67
2023-05-08T06:51:57.833Z,12.38
2023-05-08T06:54:24.750Z,12.65
2023-05-08T06:56:53.117Z,12.10
2023-05-08T06:59:20.133Z,12.88
2023-05-08T07:01:47.081Z,12.33
2023-05-08T07:04:14.016Z,12.85
2023-05-08T07:06:40.966Z,12.48
2023-05-08T07:09:07.562Z,12.50
2023-05-08T07:11:34.074Z,13.13
2023-05-08T07:14:00.725Z,13.07
2023-05-08T07:16:27.270Z,13.45
2023-05-08T07:18:53.662Z,14.57
2023-05-08T07:21:21.303Z,14.65
2023-05-08T07:23:50.394Z,13.93
2023-05-08T07:26:17.697Z,14.30
2023-05-08T07:28:44.161Z,15.30
2023-05-08T07:31:10.633Z,15.70
2023-05-08T07:33:37.480Z,16.23
2023-05-08T07:36:04.055Z,16.67
2023-05-08T07:38:30.755Z,15.93
2023-05-08T07:40:57.844Z,16.42
2023-05-08T07:43:24.394Z,16.52
2023-05-08T07:45:51.237Z,17.15
2023-05-08T07:48:17.897Z,17.02
2023-05-08T07:50:44.757Z,17.27
2023-05-08T07:53:11.263Z,17.73
2023-05-08T07:55:37.687Z,17.90
2023-05-08T07:58:04.199Z,17.05
2023-05-08T08:00:31.402Z,16.92
2023-05-08T08:02:58.109Z,17.03
2023-05-08T08:05:24.686Z,16.90
2023-05-08T08:07:51.293Z,17.55
2023-05-08T08:10:17.780Z,17.25
2023-05-08T08:12:44.311Z,17.67
2023-05-08T08:15:11.019Z,17.33
2023-05-08T08:17:37.789Z,17.60
2023-05-08T08:20:04.952Z,18.65
2023-05-08T08:22:31.320Z,17.85
2023-05-08T08:24:57.722Z,16.90
2023-05-08T08:27:24.318Z,17.33
2023-05-08T08:29:52.601Z,17.65
2023-05-08T08:32:25.271Z,17.67
2023-05-08T08:34:51.962Z,16.63
2023-05-08T08:37:18.719Z,17.35
2023-05-08T08:39:45.339Z,17.87
2023-05-08T08:42:12.373Z,16.75
2023-05-08T08:44:40.045Z,16.38
2023-05-08T08:47:10.415Z,16.75
2023-05-08T08:49:42.974Z,16.85
2023-05-08T08:52:25.472Z,16.47
2023-05-08T08:54:52.706Z,17.00
2023-05-08T08:57:20.069Z,16.15
2023-05-08T08:59:46.874Z,16.95
2023-05-08T09:02:17.925Z,16.42
2023-05-08T09:04:44.762Z,16.47
2023-05-08T09:07:12.075Z,16.63
2023-05-08T09:09:44.620Z,16.33
2023-05-08T09:12:12.798Z,15.65
2023-05-08T09:14:39.306Z,17.05
2023-05-08T09:17:05.801Z,15.80
2023-05-08T09:19:33.851Z,15.70
2023-05-08T09:22:01.296Z,15.25
2023-05-08T09:24:53.363Z,15.95
2023-05-08T09:27:25.002Z,14.85
2023-05-08T09:30:08.531Z,15.90
2023-05-08T09:32:37.911Z,15.32
2023-05-08T09:35:06.519Z,15.75
2023-05-08T09:37:33.949Z,14.43
2023-05-08T09:40:26.428Z,14.65
2023-05-08T09:42:52.788Z,12.67
2023-05-08T09:45:30.263Z,13.77
2023-05-08T09:47:57.210Z,14.35
2023-05-08T09:50:25.116Z,14.85
2023-05-08T09:52:51.664Z,13.15
2023-05-08T09:55:18.759Z,15.30
2023-05-08T09:57:58.274Z,15.68
2023-05-08T10:00:26.536Z,15.45
2023-05-08T10:02:59.114Z,14.90
2023-05-08T10:05:25.777Z,16.20
2023-05-08T10:07:52.644Z,16.10
2023-05-08T10:10:26.899Z,16.20
2023-05-08T10:12:55.449Z,16.92
2023-05-08T10:15:24.765Z,16.33
2023-05-08T10:18:02.464Z,15.90
2023-05-08T10:20:30.864Z,17.47
2023-05-08T10:22:58.909Z,18.23
2023-05-08T10:25:26.305Z,19.25
2023-05-08T10:28:05.548Z,18.63
2023-05-08T10:30:34.176Z,18.67
2023-05-08T10:33:03.228Z,21.03
2023-05-08T10:35:31.583Z,23.05
2023-05-08T10:37:59.049Z,24.30
2023-05-08T10:40:25.682Z,24.15
2023-05-08T10:42:52.285Z,24.65
2023-05-08T10:45:18.906Z,24.50
2023-05-08T10:47:52.279Z,25.25
2023-05-08T10:50:36.818Z,26.35
2023-05-08T10:53:15.832Z,27.02
2023-05-08T10:55:45.965Z,27.60
2023-05-08T10:58:29.264Z,28.60
2023-05-08T11:01:07.367Z,30.77
2023-05-08T11:03:45.992Z,25.73
2023-05-08T11:06:13.137Z,25.13
2023-05-08T11:08:51.622Z,26.27
2023-05-08T11:11:25.203Z,25.43
2023-05-08T11:13:56.382Z,25.40
2023-05-08T11:16:54.019Z,28.08
2023-05-08T11:19:25.208Z,26.60
2023-05-08T11:22:10.690Z,27.50
2023-05-08T11:24:38.565Z,29.33
2023-05-08T11:27:05.051Z,27.52
2023-05-08T11:29:31.560Z,30.23
2023-05-08T11:31:58.289Z,31.45
2023-05-08T11:34:54.239Z,31.88
2023-05-08T11:37:24.023Z,32.00
2023-05-08T11:39:50.782Z,31.70
2023-05-08T11:42:29.148Z,32.50
2023-05-08T11:45:14.221Z,31.13
2023-05-08T11:47:42.843Z,32.22
2023-05-08T11:50:11.005Z,32.50
2023-05-08T11:52:39.443Z,32.40
2023-05-08T11:55:11.176Z,32.75
2023-05-08T11:57:38.041Z,30.67
2023-05-08T12:00:06.268Z,31.02
2023-05-08T12:02:40.863Z,30.50
2023-05-08T12:05:09.098Z,30.15
2023-05-08T12:07:48.996Z,30.58
2023-05-08T12:10:16.574Z,31.08
2023-05-08T12:12:44.996Z,30.13
2023-05-08T12:15:14.084Z,29.67
2023-05-08T12:17:41.487Z,30.02
2023-05-08T12:20:19.160Z,29.42
2023-05-08T12:22:53.229Z,29.73
2023-05-08T12:25:20.161Z,28.23
2023-05-08T12:27:47.056Z,28.53
2023-05-08T12:30:14.700Z,28.83
2023-05-08T12:32:42.600Z,27.70
2023-05-08T12:35:10.925Z,24.35
2023-05-08T12:37:37.818Z,26.30
2023-05-08T12:40:05.593Z,25.33
2023-05-08T12:42:45.369Z,27.10
2023-05-08T12:45:20.996Z,26.55
2023-05-08T12:47:51.937Z,25.70
2023-05-08T12:50:23.112Z,24.33
2023-05-08T12:52:51.604Z,21.63
2023-05-08T12:55:30.256Z,22.73
2023-05-08T12:58:01.091Z,22.45
2023-05-08T13:00:47.291Z,22.15
2023-05-08T13:03:28.345Z,22.48
2023-05-08T13:05:57.004Z,20.93
2023-05-08T13:08:37.338Z,21.60
2023-05-08T13:11:06.441Z,20.48
2023-05-08T13:13:34.827Z,20.35
2023-05-08T13:16:06.623Z,20.25
2023-05-08T13:18:36.137Z,21.03
2023-05-08T13:21:03.781Z,20.88
2023-05-08T13:23:30.344Z,21.42
2023-05-08T13:25:57.009Z,21.63
2023-05-08T13:28:23.348Z,21.60
2023-05-08T13:30:49.818Z,21.43
2023-05-08T13:33:16.298Z,21.27
2023-05-08T13:35:42.908Z,21.10
2023-05-08T13:38:09.381Z,20.45
2023-05-08T13:40:35.956Z,20.73
2023-05-08T13:43:02.367Z,20.60
2023-05-08T13:45:28.885Z,20.83
2023-05-08T13:47:55.560Z,20.30
2023-05-08T13:50:22.128Z,20.35
2023-05-08T13:52:49.665Z,20.55
2023-05-08T13:55:17.621Z,20.23
2023-05-08T13:57:44.265Z,19.77
2023-05-08T14:00:11.436Z,20.48
2023-05-08T14:02:38.117Z,19.23
2023-05-08T14:05:07.180Z,19.23
2023-05-08T14:07:33.998Z,18.50
2023-05-08T14:10:00.622Z,20.60
2023-05-08T14:12:27.175Z,19.83
2023-05-08T14:14:53.604Z,19.40
2023-05-08T14:17:20.017Z,19.23
2023-05-08T14:19:46.564Z,19.97
2023-05-08T14:22:12.959Z,19.42
2023-05-08T14:24:40.029Z,19.80
2023-05-08T14:27:06.665Z,19.35
2023-05-08T14:29:34.158Z,19.60
2023-05-08T14:32:00.963Z,19.30
2023-05-08T14:34:27.509Z,18.75
2023-05-08T14:36:54.050Z,19.45
2023-05-08T14:39:20.721Z,17.98
2023-05-08T14:42:05.266Z,17.98
2023-05-08T14:44:33.807Z,18.03
2023-05-08T14:47:00.282Z,18.33
2023-05-08T14:49:36.636Z,17.77
2023-05-08T14:52:04.566Z,17.58
2023-05-08T14:54:31.626Z,18.00
2023-05-08T14:56:58.108Z,18.23
2023-05-08T14:59:24.581Z,17.15
2023-05-08T15:01:51.150Z,16.98
2023-05-08T15:04:18.078Z,19.20
2023-05-08T15:06:44.679Z,17.27
2023-05-08T15:09:11.212Z,17.27
2023-05-08T15:11:37.785Z,17.67
2023-05-08T15:14:05.064Z,18.60
2023-05-08T15:16:31.688Z,17.95
2023-05-08T15:18:58.188Z,17.50
2023-05-08T15:21:26.647Z,17.80
2023-05-08T15:23:54.931Z,18.83
2023-05-08T15:26:22.224Z,18.20
2023-05-08T15:28:49.091Z,17.75
2023-05-08T15:31:15.991Z,18.38
2023-05-08T15:33:44.949Z,18.50
2023-05-08T15:36:12.806Z,17.75
2023-05-08T15:38:40.868Z,18.30
2023-05-08T15:41:12.130Z,16.88
2023-05-08T15:43:40.911Z,17.67
2023-05-08T15:46:07.476Z,17.83
2023-05-08T15:48:34.163Z,17.55
2023-05-08T15:51:00.709Z,17.48
2023-05-08T15:53:27.140Z,18.27
2023-05-08T15:55:54.162Z,18.20
2023-05-08T15:58:21.126Z,17.13
2023-05-08T16:00:48.033Z,18.25
2023-05-08T16:03:14.868Z,18.30
2023-05-08T16:05:41.521Z,16.65
2023-05-08T16:08:12.212Z,17.48
2023-05-08T16:10:39.572Z,17.13
2023-05-08T16:13:06.266Z,18.88
2023-05-08T16:15:32.726Z,18.88
2023-05-08T16:17:59.432Z,19.80
2023-05-08T16:20:26.116Z,18.83
2023-05-08T16:22:54.861Z,19.93
2023-05-08T16:25:21.902Z,19.15
2023-05-08T16:27:48.374Z,19.23
2023-05-08T16:30:15.215Z,20.23
2023-05-08T16:32:41.818Z,19.77
2023-05-08T16:35:08.721Z,18.47
2023-05-08T16:37:36.178Z,20.70
2023-05-08T16:40:04.391Z,21.38
2023-05-08T16:42:30.945Z,22.00
2023-05-08T16:44:57.402Z,21.20
2023-05-08T16:47:23.918Z,21.30
2023-05-08T16:49:50.348Z,22.90
2023-05-08T16:52:16.840Z,22.83
2023-05-08T16:54:43.210Z,23.92
2023-05-08T16:57:09.619Z,24.60
2023-05-08T16:59:36.045Z,24.77
2023-05-08T17:02:02.512Z,26.23
2023-05-08T17:04:30.790Z,27.67
2023-05-08T17:06:57.560Z,27.65
2023-05-08T17:09:25.310Z,27.58
2023-05-08T17:11:51.806Z,28.00
2023-05-08T17:14:18.518Z,27.33
2023-05-08T17:16:45.292Z,27.33
2023-05-08T17:19:11.741Z,28.48
2023-05-08T17:21:38.184Z,28.20
2023-05-08T17:24:04.827Z,29.07
2023-05-08T17:26:33.936Z,30.77
2023-05-08T17:29:00.749Z,34.60
2023-05-08T17:31:28.662Z,32.75
2023-05-08T17:33:55.193Z,32.58
2023-05-08T17:36:21.941Z,33.27
2023-05-08T17:38:50.120Z,31.67
2023-05-08T17:41:16.671Z,32.45
2023-05-08T17:43:43.195Z,31.45
2023-05-08T17:46:09.861Z,29.63
2023-05-08T17:48:36.433Z,30.57
2023-05-08T17:51:03.199Z,31.42
2023-05-08T17:53:30.743Z,30.73
2023-05-08T17:55:57.891Z,30.52
2023-05-08T17:58:25.143Z,30.10
2023-05-08T18:00:52.580Z,30.00
2023-05-08T18:03:19.286Z,29.88
2023-05-08T18:05:45.769Z,28.38
2023-05-08T18:08:12.110Z,30.65
2023-05-08T18:10:39.370Z,29.73
2023-05-08T18:13:06.114Z,29.37
2023-05-08T18:15:36.066Z,29.30
2023-05-08T18:18:02.570Z,27.02
2023-05-08T18:20:29.182Z,28.27
2023-05-08T18:22:55.758Z,27.50
2023-05-08T18:25:22.295Z,27.13
2023-05-08T18:27:50.061Z,26.95
2023-05-08T18:30:19.340Z,27.85
2023-05-08T18:32:45.831Z,26.45
2023-05-08T18:35:12.313Z,26.17
2023-05-08T18:37:38.786Z,25.20
2023-05-08T18:40:06.325Z,25.58
2023-05-08T18:42:32.732Z,25.08
2023-05-08T18:45:00.600Z,24.88
2023-05-08T18:47:27.042Z,24.77
2023-05-08T18:49:53.721Z,23.77
2023-05-08T18:52:20.359Z,24.10
2023-05-08T18:54:46.761Z,23.70
2023-05-08T18:57:13.333Z,23.23
2023-05-08T18:59:39.750Z,24.45
2023-05-08T19:02:06.224Z,22.40
2023-05-08T19:04:32.672Z,22.50
2023-05-08T19:06:59.297Z,23.15
2023-05-08T19:09:25.890Z,21.48
2023-05-08T19:11:52.253Z,21.55
2023-05-08T19:14:18.742Z,21.83
2023-05-08T19:16:45.149Z,21.23
2023-05-08T19:19:11.586Z,20.42
2023-05-08T19:21:37.944Z,18.55
2023-05-08T19:24:04.579Z,20.13
2023-05-08T19:26:31.150Z,19.17
2023-05-08T19:28:57.601Z,20.15
2023-05-08T19:31:24.206Z,19.67
2023-05-08T19:33:50.739Z,18.58
2023-05-08T19:36:18.324Z,19.38
2023-05-08T19:38:44.768Z,18.00
2023-05-08T19:41:11.747Z,19.20
2023-05-08T19:43:38.288Z,18.13
2023-05-08T19:46:04.686Z,17.83
2023-05-08T19:48:31.229Z,17.60
2023-05-08T19:50:57.816Z,18.87
2023-05-08T19:53:24.346Z,18.80
2023-05-08T19:55:50.883Z,19.65
2023-05-08T19:58:17.811Z,19.67
2023-05-08T20:00:50.810Z,19.73
2023-05-08T20:03:17.895Z,19.17
2023-05-08T20:05:44.521Z,17.98
2023-05-08T20:08:10.968Z,18.95
2023-05-08T20:10:37.572Z,19.05
2023-05-08T20:13:05.531Z,18.52
2023-05-08T20:15:32.095Z,18.47
2023-05-08T20:17:59.572Z,19.90
2023-05-08T20:20:27.167Z,19.08
2023-05-08T20:22:53.624Z,20.42
2023-05-08T20:25:20.101Z,19.48
2023-05-08T20:27:46.480Z,19.17
2023-05-08T20:30:13.511Z,19.35
2023-05-08T20:32:40.230Z,19.88
2023-05-08T20:35:07.100Z,20.88
2023-05-08T20:37:33.469Z,19.92
2023-05-08T20:39:59.885Z,21.87
2023-05-08T20:42:26.265Z,22.17
2023-05-08T20:44:52.945Z,21.55
2023-05-08T20:47:19.339Z,22.73
2023-05-08T20:49:45.839Z,19.23
2023-05-08T20:52:12.268Z,19.40
2023-05-08T20:54:38.622Z,18.52
2023-05-08T20:57:05.083Z,17.75
2023-05-08T20:59:31.420Z,18.02
2023-05-08T21:01:57.822Z,18.45
2023-05-08T21:04:24.274Z,17.47
2023-05-08T21:06:53.998Z,18.50
2023-05-08T21:09:20.626Z,17.90
2023-05-08T21:11:47.198Z,16.38
2023-05-08T21:14:13.567Z,17.05
2023-05-08T21:16:40.003Z,17.07
2023-05-08T21:19:06.429Z,17.13
2023-05-08T21:21:33.471Z,17.13
2023-05-08T21:24:00.035Z,16.15
2023-05-08T21:26:26.503Z,17.23
2023-05-08T21:28:53.664Z,16.90
2023-05-08T21:31:20.368Z,17.55
2023-05-08T21:33:46.925Z,16.42
2023-05-08T21:36:13.368Z,17.10
2023-05-08T21:38:39.779Z,18.20
2023-05-08T21:41:08.000Z,15.83
2023-05-08T21:43:38.814Z,16.85
2023-05-08T21:46:07.113Z,16.23
2023-05-08T21:48:34.004Z,15.40
2023-05-08T21:51:01.438Z,15.77
2023-05-08T21:53:28.125Z,16.10
2023-05-08T21:55:54.678Z,15.90
2023-05-08T21:58:21.107Z,15.48
2023-05-08T22:00:47.572Z,17.25
2023-05-08T22:03:14.059Z,17.65
2023-05-08T22:05:40.655Z,17.30
2023-05-08T22:08:07.200Z,16.45
2023-05-08T22:10:33.605Z,17.67
2023-05-08T22:13:01.535Z,18.08
2023-05-08T22:15:30.251Z,17.23
2023-05-08T22:17:57.162Z,17.00
2023-05-08T22:20:23.806Z,16.50
2023-05-08T22:22:50.602Z,16.83
2023-05-08T22:25:17.159Z,16.87
2023-05-08T22:27:43.627Z,16.98
2023-05-08T22:30:10.372Z,15.93
2023-05-08T22:32:36.871Z,16.23
2023-05-08T22:35:03.538Z,17.60
2023-05-08T22:37:30.490Z,16.13
2023-05-08T22:39:56.996Z,16.55
2023-05-08T22:42:24.057Z,17.23
2023-05-08T22:44:51.054Z,17.25
2023-05-08T22:47:17.855Z,16.58
2023-05-08T22:49:44.487Z,16.63
2023-05-08T22:52:10.996Z,17.70
2023-05-08T22:54:37.409Z,17.40
2023-05-08T22:57:04.000Z,17.90
2023-05-08T22:59:30.496Z,17.52
2023-05-08T23:01:57.035Z,17.57
2023-05-08T23:04:23.464Z,17.60
2023-05-08T23:06:49.932Z,18.42
2023-05-08T23:09:16.476Z,18.40
2023-05-08T23:11:42.960Z,18.05
2023-05-08T23:14:09.494Z,17.30
2023-05-08T23:16:36.215Z,17.50
2023-05-08T23:19:04.432Z,19.00
2023-05-08T23:21:32.142Z,18.77
2023-05-08T23:23:58.947Z,18.75
2023-05-08T23:26:26.075Z,18.20
2023-05-08T23:28:52.528Z,18.85
2023-05-08T23:31:19.023Z,17.50
2023-05-08T23:33:45.465Z,18.30
2023-05-08T23:36:12.169Z,17.65
2023-05-08T23:38:38.718Z,17.67
2023-05-08T23:41:05.462Z,17.90
2023-05-08T23:43:32.097Z,18.42
2023-05-08T23:45:58.738Z,16.67
2023-05-08T23:48:25.905Z,18.45
2023-05-08T23:50:52.367Z,19.27
2023-05-08T23:53:18.961Z,19.33
2023-05-08T23:55:45.639Z,18.08
2023-05-08T23:58:11.989Z,19.90
